Time;durP1;ratioP1;P1;durP2;ratioP2;P2;SDS_P1;SDS_P2;PMS_P1;PMS_P2;Temp;Humidity;BMP_temperature;BMP_pressure;BME280_temperature;BME280_humidity;BME280_pressure;Samples;Min_cycle;Max_cycle;Signal;HPM_P1;HPM_P2
2024/02/09 00:01:15;;;;;;;29.23;8.30;;;;;;;13.73;81.05;98731.66;5072807;28;20025;-80
2024/02/09 00:03:41;;;;;;;24.63;8.73;;;;;;;13.67;81.83;98731.00;5072859;28;20497;-78
2024/02/09 00:06:06;;;;;;;23.33;8.57;;;;;;;13.78;81.27;98721.88;5072583;28;20033;-80
2024/02/09 00:08:40;;;;;;;23.25;8.75;;;;;;;13.85;81.34;98713.81;5071483;28;20390;-78
2024/02/09 00:11:07;;;;;;;27.88;9.23;;;;;;;13.79;81.52;98712.28;5069742;28;20028;-78
2024/02/09 00:13:32;;;;;;;24.05;9.40;;;;;;;13.86;81.03;98698.06;5072040;28;20044;-79
2024/02/09 00:15:58;;;;;;;25.85;9.45;;;;;;;13.77;81.85;98699.25;5071474;28;20116;-77
2024/02/09 00:18:23;;;;;;;30.75;10.48;;;;;;;13.82;81.51;98692.09;5071902;28;20039;-78
2024/02/09 00:20:50;;;;;;;26.63;9.70;;;;;;;13.91;81.05;98698.75;5070533;28;20067;-78
2024/02/09 00:23:18;;;;;;;26.95;10.30;;;;;;;13.87;80.75;98691.06;5072517;28;20048;-79
2024/02/09 00:25:44;;;;;;;29.50;9.90;;;;;;;13.88;80.83;98687.53;5071838;28;20036;-79
2024/02/09 00:28:18;;;;;;;34.78;11.63;;;;;;;13.75;81.34;98685.34;5073004;28;20392;-80
2024/02/09 00:30:43;;;;;;;;;;;;;;;13.80;81.67;98690.41;5070555;28;20060;-78
2024/02/09 00:33:09;;;;;;;31.35;11.57;;;;;;;13.76;82.53;98675.72;5076519;28;19912;-79
2024/02/09 00:35:35;;;;;;;27.17;11.48;;;;;;;13.95;81.55;98661.09;5071063;28;20024;-79
2024/02/09 00:38:03;;;;;;;30.38;11.18;;;;;;;14.00;81.23;98660.91;5071610;28;20029;-79
2024/02/09 00:40:35;;;;;;;29.63;11.75;;;;;;;13.99;81.00;98660.06;5070528;28;20492;-79
2024/02/09 00:43:01;;;;;;;28.60;12.45;;;;;;;13.90;81.20;98654.31;5071675;28;20098;-80
2024/02/09 00:45:36;;;;;;;36.35;12.48;;;;;;;13.93;81.38;98646.31;5071836;28;20040;-80
2024/02/09 00:48:06;;;;;;;33.35;12.50;;;;;;;13.94;80.97;98635.81;5070797;28;20039;-79
2024/02/09 00:50:31;;;;;;;38.35;13.60;;;;;;;13.88;81.38;98632.53;5070319;28;20119;-80
2024/02/09 00:53:10;;;;;;;33.42;14.07;;;;;;;13.98;81.16;98621.66;5071135;28;20115;-78
2024/02/09 00:55:36;;;;;;;30.98;13.00;;;;;;;14.02;81.04;98627.66;5072548;28;20035;-78
2024/02/09 00:58:01;;;;;;;31.73;12.70;;;;;;;14.08;80.81;98624.81;5071355;28;20405;-80
2024/02/09 01:00:30;;;;;;;33.70;14.40;;;;;;;14.02;81.64;98620.66;5072544;28;20063;-79
2024/02/09 01:02:57;;;;;;;28.40;13.07;;;;;;;14.04;81.60;98608.34;5073195;28;20036;-80
2024/02/09 01:05:23;;;;;;;32.03;13.38;;;;;;;14.00;81.98;98600.66;5072779;28;20037;-79
2024/02/09 01:07:50;;;;;;;34.45;12.88;;;;;;;14.02;82.21;98602.34;5070364;28;20086;-78
2024/02/09 01:10:19;;;;;;;34.25;13.40;;;;;;;13.97;81.82;98591.13;5071027;28;20024;-80
2024/02/09 02:46:13;;;;;;;19.45;8.70;;;;;;;14.37;81.84;98461.22;5033263;28;20028;-48
2024/02/09 03:05:14;;;;;;;21.00;7.00;;;;;;;14.18;82.07;98421.78;5032187;28;20041;-49
2024/02/09 03:07:40;;;;;;;15.05;6.63;;;;;;;14.31;81.91;98422.16;5031937;28;20041;-48
2024/02/09 03:10:06;;;;;;;15.73;7.13;;;;;;;14.28;82.35;98415.25;5032526;28;20037;-48
2024/02/09 03:12:32;;;;;;;17.27;6.30;;;;;;;14.23;81.93;98415.47;5032646;28;20034;-47
2024/02/09 03:14:59;;;;;;;19.25;6.18;;;;;;;14.17;82.34;98410.47;5031968;28;20033;-50
2024/02/09 03:17:26;;;;;;;16.67;6.57;;;;;;;14.16;82.14;98402.66;5032122;28;20404;-47
2024/02/09 03:19:51;;;;;;;15.98;5.90;;;;;;;14.30;81.89;98404.72;5031663;28;20408;-48
2024/02/09 03:22:17;;;;;;;13.02;6.00;;;;;;;14.27;81.84;98397.84;5032157;28;20038;-51
2024/02/09 03:24:42;;;;;;;13.38;5.82;;;;;;;14.33;81.64;98394.13;5031930;28;20072;-50
2024/02/09 03:27:08;;;;;;;13.90;5.63;;;;;;;14.14;82.50;98391.41;5032491;28;20025;-47
2024/02/09 03:29:33;;;;;;;15.40;5.93;;;;;;;14.08;82.24;98389.88;5031967;28;20495;-48
2024/02/09 03:31:59;;;;;;;15.88;5.88;;;;;;;14.30;81.99;98389.84;5031766;28;20033;-48
2024/02/09 03:34:25;;;;;;;14.18;6.00;;;;;;;14.36;81.11;98373.88;5032525;28;20026;-46
2024/02/09 03:36:54;;;;;;;13.38;5.82;;;;;;;14.31;81.51;98382.84;5031900;28;20037;-49
2024/02/09 03:39:19;;;;;;;12.68;5.93;;;;;;;14.06;82.33;98376.00;5031331;28;20041;-47
2024/02/09 03:41:45;;;;;;;15.43;5.70;;;;;;;14.25;82.09;98368.22;5031251;28;20055;-47
2024/02/09 03:44:10;;;;;;;12.23;5.63;;;;;;;14.20;82.45;98376.28;5032111;28;20037;-50
2024/02/09 03:46:36;;;;;;;13.15;6.20;;;;;;;14.28;82.25;98373.31;5032146;28;20033;-48
2024/02/09 03:49:01;;;;;;;15.52;6.63;;;;;;;14.33;82.16;98370.53;5031073;28;20037;-51
2024/02/09 03:51:26;;;;;;;13.32;6.07;;;;;;;14.37;81.42;98359.88;5031790;28;20619;-48
2024/02/09 03:53:52;;;;;;;12.57;6.10;;;;;;;14.15;82.41;98362.50;5031577;28;20466;-49
2024/02/09 03:56:17;;;;;;;15.38;6.78;;;;;;;14.22;82.25;98358.72;5031803;28;20107;-48
2024/02/09 03:58:45;;;;;;;15.55;6.55;;;;;;;14.00;83.32;98367.50;5030461;28;20042;-50
2024/02/09 04:01:11;;;;;;;12.45;6.25;;;;;;;14.22;82.54;98358.72;5031734;28;20025;-47
2024/02/09 04:03:36;;;;;;;16.20;6.72;;;;;;;14.18;82.55;98358.91;5031464;28;20129;-46
2024/02/09 04:06:03;;;;;;;12.73;6.38;;;;;;;14.23;82.87;98356.94;5019561;28;20045;-48
2024/02/09 04:08:28;;;;;;;13.30;6.53;;;;;;;14.19;82.55;98361.47;5011538;28;20412;-47
2024/02/09 04:10:53;;;;;;;18.25;6.75;;;;;;;14.11;83.17;98353.06;5011616;28;20042;-47
2024/02/09 04:13:19;;;;;;;15.32;6.70;;;;;;;14.26;82.37;98354.22;5012282;28;20534;-47
2024/02/09 04:15:44;;;;;;;12.88;6.57;;;;;;;14.23;82.37;98349.94;5013472;28;20042;-48
2024/02/09 04:18:09;;;;;;;13.65;6.65;;;;;;;14.31;82.00;98348.78;5012095;28;20035;-48
2024/02/09 04:20:35;;;;;;;16.23;6.65;;;;;;;14.31;82.45;98348.78;5011688;28;20038;-48
2024/02/09 04:23:00;;;;;;;15.05;6.78;;;;;;;14.20;82.46;98344.00;5010500;28;20073;-48
2024/02/09 04:25:26;;;;;;;12.07;7.35;;;;;;;14.16;83.08;98347.63;5011569;28;20030;-48
2024/02/09 04:27:53;;;;;;;14.32;7.45;;;;;;;14.16;82.78;98345.88;5010474;28;20045;-47
2024/02/09 04:30:21;;;;;;;16.73;7.70;;;;;;;14.06;83.52;98341.94;5009043;28;20045;-47
2024/02/09 04:32:47;;;;;;;13.63;7.90;;;;;;;14.14;83.11;98342.47;5010724;28;20121;-48
2024/02/09 04:35:14;;;;;;;16.63;8.30;;;;;;;14.02;83.50;98329.88;5011477;28;20116;-46
2024/02/09 04:37:39;;;;;;;12.93;7.65;;;;;;;14.00;83.58;98328.22;5010684;28;20115;-48
2024/02/09 04:40:06;;;;;;;15.23;7.55;;;;;;;14.01;83.20;98325.56;5009551;28;20488;-48
2024/02/09 04:42:32;;;;;;;15.27;7.07;;;;;;;14.25;82.96;98322.81;5010841;28;20507;-48
2024/02/09 04:44:57;;;;;;;14.10;7.10;;;;;;;14.32;82.36;98327.75;5010615;28;20030;-49
2024/02/09 04:47:22;;;;;;;16.38;7.55;;;;;;;14.27;82.24;98324.47;5010517;28;20040;-49
2024/02/09 04:49:49;;;;;;;16.02;7.00;;;;;;;14.14;82.95;98318.03;5008634;28;20044;-47
2024/02/09 04:52:15;;;;;;;15.38;6.50;;;;;;;14.36;82.10;98325.84;5010844;28;20516;-48
2024/02/09 04:54:40;;;;;;;12.40;6.25;;;;;;;14.34;82.16;98320.66;5010284;28;20045;-49
2024/02/09 04:57:07;;;;;;;14.02;6.13;;;;;;;14.10;82.81;98321.69;5011047;28;20037;-48
2024/02/09 04:59:33;;;;;;;12.80;5.82;;;;;;;14.35;82.04;98319.75;5010505;28;20037;-46
2024/02/09 05:01:58;;;;;;;12.85;5.93;;;;;;;14.10;82.62;98317.28;5010339;28;20032;-46
2024/02/09 05:04:24;;;;;;;17.17;5.95;;;;;;;14.25;82.09;98320.19;5011114;28;20101;-46
2024/02/09 05:06:50;;;;;;;15.60;5.80;;;;;;;14.19;82.17;98306.44;5010073;28;20069;-47
2024/02/09 05:09:29;;;;;;;12.82;5.85;;;;;;;14.36;81.64;98297.88;5010041;28;20035;-47
2024/02/09 05:11:56;;;;;;;15.05;6.00;;;;;;;14.40;82.00;98304.69;5010108;28;20059;-52
2024/02/09 05:14:21;;;;;;;12.82;5.68;;;;;;;14.24;82.15;98314.09;5011132;28;20117;-48
2024/02/09 05:16:46;;;;;;;13.07;5.50;;;;;;;14.41;81.60;98305.56;5010151;28;20117;-48
2024/02/09 05:19:12;;;;;;;20.00;5.70;;;;;;;14.45;81.46;98296.66;5009184;28;20034;-47
2024/02/09 05:21:39;;;;;;;14.93;5.65;;;;;;;14.30;81.43;98302.50;5009701;28;20041;-50
2024/02/09 05:24:04;;;;;;;12.90;5.22;;;;;;;14.38;80.94;98289.97;5010266;28;20073;-48
2024/02/09 05:26:30;;;;;;;12.15;4.93;;;;;;;14.34;81.54;98296.22;5010138;28;20052;-48
2024/02/09 05:28:56;;;;;;;12.45;4.95;;;;;;;14.28;82.10;98288.59;5009178;28;20034;-48
2024/02/09 05:31:25;;;;;;;16.50;5.43;;;;;;;14.28;82.01;98294.72;5010307;28;20086;-46
2024/02/09 05:33:51;;;;;;;15.55;5.70;;;;;;;14.17;81.60;98300.41;5009884;28;20034;-49
2024/02/09 05:36:22;;;;;;;13.25;5.32;;;;;;;14.13;81.66;98283.13;5010238;28;20057;-47
2024/02/09 05:38:48;;;;;;;14.63;5.32;;;;;;;14.33;81.73;98287.53;5009166;28;20056;-47
2024/02/09 05:41:17;;;;;;;14.50;5.65;;;;;;;14.21;81.23;98283.63;5010107;28;20485;-48
2024/02/09 05:43:43;;;;;;;13.65;5.20;;;;;;;14.33;81.49;98287.53;5008510;28;20053;-49
2024/02/09 05:46:09;;;;;;;14.18;5.15;;;;;;;14.43;81.32;98286.22;5010290;28;20037;-49
2024/02/09 05:48:35;;;;;;;13.80;5.75;;;;;;;14.36;81.16;98276.03;5009845;28;20042;-49
2024/02/09 05:51:01;;;;;;;17.48;5.50;;;;;;;14.40;81.20;98277.63;5009817;28;20041;-48
2024/02/09 05:53:26;;;;;;;10.60;4.93;;;;;;;14.25;81.14;98286.13;5010031;28;20400;-48
2024/02/09 05:55:51;;;;;;;13.85;5.47;;;;;;;14.38;81.24;98277.72;5009429;28;20049;-49
2024/02/09 05:58:17;;;;;;;13.45;5.55;;;;;;;14.44;80.79;98273.97;5009510;28;20176;-50
2024/02/09 06:00:43;;;;;;;12.45;5.15;;;;;;;14.35;81.03;98275.19;5010547;28;20030;-52
2024/02/09 06:03:09;;;;;;;16.42;5.20;;;;;;;14.11;80.83;98279.69;5009946;28;20030;-47
2024/02/09 06:05:38;;;;;;;16.55;5.32;;;;;;;14.33;81.06;98277.03;5010450;28;20036;-47
2024/02/09 06:08:03;;;;;;;10.88;4.80;;;;;;;14.40;80.63;98268.00;5033016;28;20040;-48
2024/02/09 06:10:29;;;;;;;12.88;5.00;;;;;;;14.19;81.24;98266.28;5033636;28;20037;-47
2024/02/09 06:12:54;;;;;;;14.07;4.85;;;;;;;14.41;80.30;98274.09;5033079;28;20053;-47
2024/02/09 06:15:20;;;;;;;15.50;5.00;;;;;;;14.44;79.99;98277.47;5033449;28;20037;-46
2024/02/09 06:17:46;;;;;;;11.85;4.75;;;;;;;14.38;80.29;98266.38;5032687;28;20038;-51
2024/02/09 06:20:12;;;;;;;13.40;5.13;;;;;;;14.37;80.37;98268.16;5033179;28;20037;-53
2024/02/09 06:22:38;;;;;;;16.13;4.53;;;;;;;14.36;80.08;98266.41;5032638;28;20037;-46
2024/02/09 06:25:05;;;;;;;11.80;5.20;;;;;;;14.32;80.45;98259.59;5033698;28;20079;-47
2024/02/09 06:27:30;;;;;;;13.23;5.13;;;;;;;14.48;80.19;98267.69;5033468;28;20403;-47
2024/02/09 06:29:58;;;;;;;15.77;5.00;;;;;;;14.31;80.69;98257.03;5032822;28;20053;-48
2024/02/09 06:32:24;;;;;;;13.60;4.95;;;;;;;14.35;80.92;98254.22;5033404;28;20071;-47
2024/02/09 06:34:50;;;;;;;14.25;4.38;;;;;;;14.43;80.78;98254.78;5032962;28;20041;-47
2024/02/09 06:37:18;;;;;;;12.07;4.85;;;;;;;13.93;81.45;98256.91;5033459;28;20034;-46
2024/02/09 06:39:45;;;;;;;14.30;5.03;;;;;;;13.85;82.24;98256.34;5033415;28;20041;-47
2024/02/09 06:42:10;;;;;;;12.00;4.72;;;;;;;14.27;81.66;98255.47;5033414;28;20029;-47
2024/02/09 06:44:43;;;;;;;15.80;5.07;;;;;;;14.27;80.85;98253.72;5034284;28;20036;-49
2024/02/09 06:47:12;;;;;;;20.08;5.13;;;;;;;14.07;82.05;98254.56;5033365;28;20448;-48
2024/02/09 06:49:43;;;;;;;15.25;5.10;;;;;;;14.21;81.28;98259.19;5032880;28;20060;-48
2024/02/09 06:52:08;;;;;;;11.43;4.82;;;;;;;14.44;80.58;98258.25;5033118;28;20121;-48
2024/02/09 06:54:33;;;;;;;15.80;4.80;;;;;;;14.36;80.05;98247.22;5033893;28;20120;-50
2024/02/09 06:56:59;;;;;;;14.50;4.90;;;;;;;14.31;80.88;98255.28;5033405;28;20044;-48
2024/02/09 06:59:24;;;;;;;11.80;4.60;;;;;;;14.46;80.80;98251.16;5032309;28;20029;-46
2024/02/09 07:01:50;;;;;;;12.52;4.78;;;;;;;14.45;80.65;98252.94;5032806;28;20095;-48
2024/02/09 07:04:18;;;;;;;13.43;4.70;;;;;;;14.32;81.01;98256.13;5033092;28;20034;-49
2024/02/09 07:06:47;;;;;;;16.77;4.57;;;;;;;14.34;81.05;98257.75;5030985;28;20044;-47
2024/02/09 07:09:18;;;;;;;10.82;4.82;;;;;;;14.45;80.88;98257.34;5031853;28;20041;-47
2024/02/09 07:11:47;;;;;;;11.85;4.85;;;;;;;14.26;81.60;98254.63;5031873;28;20038;-47
2024/02/09 07:14:15;;;;;;;12.52;4.47;;;;;;;14.41;80.92;98246.13;5032501;28;20026;-48
2024/02/09 07:16:41;;;;;;;13.02;4.55;;;;;;;14.32;81.26;98254.38;5031439;28;20044;-46
2024/02/09 07:19:09;;;;;;;12.32;4.57;;;;;;;14.35;81.21;98259.47;5031711;28;20120;-46
2024/02/09 07:21:35;;;;;;;13.15;4.50;;;;;;;14.33;80.99;98248.22;5032028;28;20037;-47
2024/02/09 07:24:01;;;;;;;13.18;4.93;;;;;;;14.18;81.71;98262.81;5032096;28;20088;-46
2024/02/09 07:26:26;;;;;;;13.05;4.68;;;;;;;14.34;82.02;98259.53;5032015;28;20037;-46
2024/02/09 07:28:52;;;;;;;16.05;4.93;;;;;;;14.32;81.85;98264.00;5031131;28;20033;-50
2024/02/09 07:31:18;;;;;;;11.88;4.72;;;;;;;14.30;81.36;98256.19;5031985;28;20057;-46
2024/02/09 07:33:44;;;;;;;16.08;5.50;;;;;;;14.31;82.13;98252.66;5031479;28;20439;-51
2024/02/09 07:36:10;;;;;;;15.27;4.82;;;;;;;14.41;81.33;98261.84;5031942;28;20029;-47
2024/02/09 07:38:35;;;;;;;12.68;5.10;;;;;;;14.47;81.15;98253.72;5031448;28;20499;-47
2024/02/09 07:41:01;;;;;;;12.20;5.00;;;;;;;14.15;82.63;98269.94;5031314;28;20029;-48
2024/02/09 07:43:27;;;;;;;11.45;4.90;;;;;;;14.53;81.03;98274.41;5032010;28;20037;-47
2024/02/09 07:45:53;;;;;;;12.43;5.03;;;;;;;14.34;81.55;98277.88;5031317;28;20175;-46
2024/02/09 07:48:18;;;;;;;9.43;4.82;;;;;;;14.31;81.18;98268.38;5031133;28;20428;-46
2024/02/09 07:50:44;;;;;;;13.48;4.97;;;;;;;14.19;81.80;98266.28;5031509;28;20033;-48
2024/02/09 07:53:09;;;;;;;10.77;5.00;;;;;;;14.44;81.44;98279.22;5031617;28;20128;-47
2024/02/09 07:55:34;;;;;;;13.73;5.03;;;;;;;14.27;81.85;98273.81;5031652;28;20076;-46
2024/02/09 07:57:59;;;;;;;10.30;4.57;;;;;;;14.32;81.75;98279.72;5031259;28;20057;-47
2024/02/09 08:00:25;;;;;;;13.95;4.80;;;;;;;14.58;81.10;98284.69;5031652;28;20120;-48
2024/02/09 08:02:50;;;;;;;11.27;4.32;;;;;;;14.44;81.38;98285.31;5033165;28;20094;-50
2024/02/09 08:05:18;;;;;;;10.18;4.38;;;;;;;14.55;81.58;98287.47;5033674;28;20061;-49
2024/02/09 08:07:45;;;;;;;13.68;4.22;;;;;;;14.72;80.34;98284.94;5032627;28;20042;-49
2024/02/09 08:10:11;;;;;;;10.85;4.38;;;;;;;14.38;80.93;98285.59;5031028;28;20483;-49
2024/02/09 08:12:38;;;;;;;10.57;4.15;;;;;;;14.59;81.21;98289.03;5031513;28;20033;-48
2024/02/09 08:15:05;;;;;;;14.40;4.13;;;;;;;14.70;80.13;98285.97;5019215;28;20065;-51
2024/02/09 08:17:30;;;;;;;9.60;4.30;;;;;;;14.82;80.28;98291.47;5010097;28;20037;-47
2024/02/09 08:19:57;;;;;;;9.88;4.07;;;;;;;14.92;80.24;98287.53;5010680;28;21583;-49
2024/02/09 08:22:23;;;;;;;11.48;4.43;;;;;;;14.95;79.74;98283.91;5008989;28;20034;-46
2024/02/09 08:24:48;;;;;;;12.00;4.05;;;;;;;14.99;79.59;98281.09;5011079;28;20538;-48
2024/02/09 08:27:14;;;;;;;11.95;4.07;;;;;;;14.60;80.57;98290.72;5011299;28;20029;-46
2024/02/09 08:29:41;;;;;;;9.32;3.70;;;;;;;14.92;79.99;98294.56;5008536;28;20038;-49
2024/02/09 08:32:06;;;;;;;12.02;4.10;;;;;;;14.64;80.89;98296.72;5010816;28;20049;-45
2024/02/09 08:34:31;;;;;;;15.27;3.92;;;;;;;14.74;80.30;98298.00;5011397;28;20510;-46
2024/02/09 08:36:57;;;;;;;7.18;3.63;;;;;;;14.77;80.89;98301.31;5010725;28;20046;-49
2024/02/09 08:39:23;;;;;;;11.65;4.00;;;;;;;14.89;80.15;98307.78;5011274;28;20033;-48
2024/02/09 08:41:48;;;;;;;9.00;4.10;;;;;;;14.77;80.37;98308.34;5010627;28;20030;-48
2024/02/09 08:44:13;;;;;;;7.75;3.90;;;;;;;14.83;79.92;98318.56;5011183;28;20163;-49
2024/02/09 08:46:39;;;;;;;12.32;4.18;;;;;;;15.17;79.78;98312.66;5009600;28;20136;-48
2024/02/09 08:49:04;;;;;;;8.60;3.90;;;;;;;15.00;79.58;98313.44;5010257;28;20385;-47
2024/02/09 08:51:30;;;;;;;9.10;3.95;;;;;;;15.29;79.16;98320.81;5011017;28;20033;-50
2024/02/09 08:53:55;;;;;;;10.13;4.13;;;;;;;15.24;78.42;98322.81;5010602;28;20033;-46
2024/02/09 08:56:20;;;;;;;8.63;4.00;;;;;;;15.27;78.48;98319.19;5010695;28;20038;-52
2024/02/09 08:58:47;;;;;;;10.63;3.80;;;;;;;15.11;78.67;98319.03;5009701;28;20030;-55
2024/02/09 09:01:12;;;;;;;9.57;3.78;;;;;;;14.75;79.12;98328.56;5011027;28;20041;-50
2024/02/09 09:03:37;;;;;;;11.73;4.38;;;;;;;15.22;78.35;98318.53;5010036;28;20404;-50
2024/02/09 09:06:04;;;;;;;9.05;3.88;;;;;;;15.27;78.31;98329.69;5010637;28;20034;-47
2024/02/09 09:08:30;;;;;;;10.60;4.60;;;;;;;15.33;77.41;98327.63;5010877;28;20041;-47
2024/02/09 09:10:55;;;;;;;10.25;3.80;;;;;;;15.48;77.46;98327.84;5030081;28;20044;-47
2024/02/09 09:13:21;;;;;;;12.23;4.05;;;;;;;15.04;79.19;98343.84;5030401;28;20124;-50
2024/02/09 09:15:46;;;;;;;10.88;4.00;;;;;;;15.37;77.66;98336.19;5029946;28;20542;-48
2024/02/09 09:18:11;;;;;;;10.52;4.20;;;;;;;15.08;78.58;98340.16;5029483;28;20442;-48
2024/02/09 09:20:36;;;;;;;11.35;4.30;;;;;;;15.06;79.32;98342.03;5029640;28;20036;-49
2024/02/09 09:23:02;;;;;;;10.65;4.20;;;;;;;14.93;79.87;98340.88;5029974;28;20053;-51
2024/02/09 09:25:31;;;;;;;12.48;4.38;;;;;;;14.82;81.19;98340.50;5030224;28;20049;-49
2024/02/09 09:27:58;;;;;;;11.18;4.38;;;;;;;15.12;80.19;98336.50;5029632;28;20041;-46
2024/02/09 09:30:23;;;;;;;14.35;4.40;;;;;;;15.09;79.40;98336.63;5029684;28;20035;-45
2024/02/09 09:32:49;;;;;;;8.52;3.90;;;;;;;15.01;80.40;98342.22;5029189;28;20030;-47
2024/02/09 09:35:15;;;;;;;10.20;4.00;;;;;;;15.30;79.04;98343.53;5029915;28;20037;-47
2024/02/09 09:37:41;;;;;;;10.52;3.90;;;;;;;14.77;80.36;98334.56;5029251;28;20038;-46
2024/02/09 09:40:08;;;;;;;9.80;4.05;;;;;;;15.18;80.06;98336.22;5029204;28;20030;-48
2024/02/09 09:42:35;;;;;;;10.98;3.83;;;;;;;15.25;79.40;98339.38;5028905;28;20068;-49
2024/02/09 09:45:07;;;;;;;9.80;3.88;;;;;;;15.32;78.49;98353.94;5029255;28;20037;-47
2024/02/09 09:47:33;;;;;;;10.45;3.78;;;;;;;15.42;78.23;98340.34;5029579;28;20064;-50
2024/02/09 09:49:59;;;;;;;7.55;3.30;;;;;;;15.40;78.16;98342.19;5028980;28;20037;-48
2024/02/09 09:52:30;;;;;;;9.30;3.20;;;;;;;15.92;76.93;98349.41;5029762;28;20096;-50
2024/02/09 09:54:58;;;;;;;12.07;3.15;;;;;;;15.49;76.77;98348.75;5029555;28;20143;-46
2024/02/09 09:57:24;;;;;;;11.80;3.25;;;;;;;15.80;76.53;98345.56;5029466;28;20400;-49
2024/02/09 09:59:52;;;;;;;7.45;2.90;;;;;;;15.78;76.32;98355.31;5028826;28;20065;-47
2024/02/09 10:02:18;;;;;;;10.80;2.83;;;;;;;15.80;75.87;98353.44;5029799;28;20042;-46
2024/02/09 10:04:43;;;;;;;7.80;2.90;;;;;;;16.14;74.89;98353.53;5029446;28;20115;-49
2024/02/09 10:07:09;;;;;;;7.10;2.70;;;;;;;15.91;75.44;98360.84;5029624;28;20065;-51
2024/02/09 10:09:35;;;;;;;9.95;2.75;;;;;;;15.55;76.34;98350.31;5028227;28;20036;-46
2024/02/09 10:12:00;;;;;;;8.63;2.55;;;;;;;15.85;75.61;98356.72;5029133;28;20041;-48
2024/02/09 10:14:26;;;;;;;9.10;2.70;;;;;;;15.86;74.48;98361.03;5029646;28;20022;-46
2024/02/09 10:16:52;;;;;;;9.68;2.53;;;;;;;15.76;75.05;98360.63;5029281;28;20085;-47
2024/02/09 10:19:17;;;;;;;8.30;2.97;;;;;;;15.65;75.89;98369.94;5028943;28;20518;-50
2024/02/09 10:21:43;;;;;;;7.47;2.40;;;;;;;15.66;75.64;98366.41;5028888;28;20112;-48
2024/02/09 10:24:10;;;;;;;7.13;2.67;;;;;;;16.08;74.88;98366.97;5029665;28;20091;-47
2024/02/09 10:26:36;;;;;;;7.80;2.47;;;;;;;15.75;75.68;98371.22;5029384;28;20056;-46
2024/02/09 10:29:03;;;;;;;8.95;2.38;;;;;;;16.03;74.90;98370.75;5028731;28;20033;-51
2024/02/09 10:31:30;;;;;;;6.60;2.30;;;;;;;15.74;74.90;98377.38;5029336;28;20037;-46
2024/02/09 10:33:56;;;;;;;7.72;2.58;;;;;;;15.23;76.63;98380.63;5027931;28;20033;-47
2024/02/09 10:36:27;;;;;;;12.93;2.90;;;;;;;15.31;76.06;98383.72;5028295;28;20392;-47
2024/02/09 10:38:55;;;;;;;9.23;2.88;;;;;;;15.71;76.33;98373.16;5028034;28;20041;-51
2024/02/09 10:41:24;;;;;;;6.93;2.90;;;;;;;15.69;76.14;98376.75;5029060;28;20029;-48
2024/02/09 10:43:51;;;;;;;9.13;3.20;;;;;;;15.64;76.08;98379.59;5028853;28;20042;-49
2024/02/09 10:46:18;;;;;;;7.50;3.20;;;;;;;15.50;77.80;98381.13;5029165;28;20395;-48
2024/02/09 10:48:47;;;;;;;6.88;3.10;;;;;;;15.41;78.54;98396.41;5028462;28;20117;-49
2024/02/09 10:51:16;;;;;;;8.85;3.10;;;;;;;15.27;80.29;98387.44;5029216;28;20789;-48
2024/02/09 10:53:56;;;;;;;8.63;3.50;;;;;;;15.63;78.85;98387.53;5031930;28;20038;-47
2024/02/09 10:56:27;;;;;;;7.95;3.80;;;;;;;15.25;80.44;98389.25;5032710;28;20073;-51
2024/02/09 10:58:55;;;;;;;5.72;3.30;;;;;;;15.73;78.51;98388.84;5031779;28;20518;-48
2024/02/09 11:01:21;;;;;;;7.07;3.63;;;;;;;15.68;78.32;98396.91;5032816;28;20168;-50
2024/02/09 11:03:49;;;;;;;6.80;3.83;;;;;;;15.14;80.57;98407.25;5032358;28;20717;-49
2024/02/09 11:06:15;;;;;;;6.57;3.58;;;;;;;15.61;79.71;98407.81;5032561;28;20038;-50
2024/02/09 11:08:41;;;;;;;8.15;3.38;;;;;;;15.02;80.99;98390.28;5031357;28;20733;-49
2024/02/09 11:11:06;;;;;;;7.50;3.20;;;;;;;15.24;80.85;98387.59;5032692;28;20668;-46
2024/02/09 11:13:33;;;;;;;8.30;3.00;;;;;;;15.06;81.88;98389.25;5031465;28;20487;-51
2024/02/09 11:16:00;;;;;;;8.50;3.40;;;;;;;15.60;80.54;98388.56;5031033;28;20033;-47
2024/02/09 11:18:34;;;;;;;7.10;2.92;;;;;;;15.61;79.61;98382.38;5031945;28;20030;-51
2024/02/09 11:21:07;;;;;;;6.57;2.85;;;;;;;15.67;79.61;98382.09;5032146;28;20495;-48
2024/02/09 11:23:40;;;;;;;6.88;2.88;;;;;;;15.19;80.32;98394.78;5032499;28;20037;-49
2024/02/09 11:26:09;;;;;;;7.38;2.70;;;;;;;15.66;79.10;98380.41;5024167;28;20492;-48
2024/02/09 11:28:35;;;;;;;8.63;2.80;;;;;;;16.43;77.07;98377.53;5031578;28;20033;-51
2024/02/09 11:31:00;;;;;;;8.00;2.85;;;;;;;16.54;76.50;98385.72;5031509;28;20030;-50
2024/02/09 11:33:25;;;;;;;6.72;2.90;;;;;;;16.59;75.89;98391.59;5032208;28;20443;-49
2024/02/09 11:35:54;;;;;;;6.00;2.90;;;;;;;16.17;76.64;98405.09;5031878;28;20120;-49
2024/02/09 11:38:20;;;;;;;7.10;2.63;;;;;;;16.13;76.25;98404.41;5031815;28;20022;-46
2024/02/09 11:40:51;;;;;;;6.32;2.80;;;;;;;16.63;74.08;98393.22;5031927;28;20124;-48
2024/02/09 11:43:17;;;;;;;7.50;2.50;;;;;;;16.39;74.53;98394.41;5032444;28;20571;-48
2024/02/09 11:45:45;;;;;;;9.73;2.92;;;;;;;16.60;73.57;98394.19;5032312;28;20128;-52
2024/02/09 11:48:14;;;;;;;8.82;2.63;;;;;;;16.90;72.41;98394.41;5032112;28;20060;-48
2024/02/09 11:50:39;;;;;;;6.18;2.05;;;;;;;16.79;72.06;98404.66;5032478;28;20542;-51
2024/02/09 11:53:07;;;;;;;6.28;1.88;;;;;;;16.03;74.04;98399.66;5033329;28;20041;-47
2024/02/09 11:55:32;;;;;;;7.20;2.30;;;;;;;15.92;73.45;98394.91;5032935;28;20033;-48
2024/02/09 11:57:58;;;;;;;7.18;1.90;;;;;;;16.51;72.57;98397.28;5031581;28;20088;-49
2024/02/09 12:00:26;;;;;;;9.30;2.13;;;;;;;16.06;72.73;98404.75;5032027;28;20037;-52
2024/02/09 12:02:51;;;;;;;6.00;1.90;;;;;;;16.52;71.68;98396.34;5031157;28;20041;-45
2024/02/09 12:05:17;;;;;;;4.63;1.65;;;;;;;16.36;70.73;98392.75;5031769;28;20044;-48
2024/02/09 12:07:42;;;;;;;4.50;1.65;;;;;;;16.49;70.44;98401.75;5031098;28;20041;-49
2024/02/09 12:10:08;;;;;;;7.90;1.85;;;;;;;16.73;69.48;98394.44;5031166;28;20029;-53
2024/02/09 12:12:35;;;;;;;4.45;1.95;;;;;;;17.19;69.07;98395.53;5031202;28;20112;-52
2024/02/09 12:15:01;;;;;;;5.47;1.67;;;;;;;17.03;69.50;98392.00;5030996;28;20083;-51
2024/02/09 12:17:26;;;;;;;4.93;2.08;;;;;;;17.10;68.15;98390.75;5031134;28;20492;-49
2024/02/09 12:19:52;;;;;;;7.95;2.05;;;;;;;16.38;70.36;98380.41;5030485;28;20057;-49
2024/02/09 12:22:17;;;;;;;6.47;1.98;;;;;;;16.55;69.76;98388.28;5030962;28;20046;-50
2024/02/09 12:24:43;;;;;;;4.78;1.60;;;;;;;16.61;69.36;98393.28;5030866;28;20034;-50
2024/02/09 12:27:16;;;;;;;4.60;1.83;;;;;;;17.15;68.33;98387.88;5030993;28;20075;-49
2024/02/09 12:29:42;;;;;;;4.75;2.05;;;;;;;17.04;68.14;98391.94;5030494;28;20038;-48
2024/02/09 12:32:10;;;;;;;4.82;1.80;;;;;;;17.29;67.62;98398.53;5031310;28;20035;-52
2024/02/09 12:34:43;;;;;;;5.45;1.92;;;;;;;17.31;67.63;98389.63;5031420;28;20037;-48
2024/02/09 12:37:09;;;;;;;6.20;2.10;;;;;;;17.35;67.38;98387.69;5030431;28;20036;-49
2024/02/09 12:39:36;;;;;;;6.05;1.90;;;;;;;17.16;67.60;98393.06;5030624;28;20045;-49
2024/02/09 12:42:02;;;;;;;6.15;2.03;;;;;;;17.29;66.55;98386.22;5030231;28;20041;-52
2024/02/09 12:44:30;;;;;;;5.35;2.20;;;;;;;17.15;67.58;98388.72;5031452;28;20033;-50
2024/02/09 12:47:02;;;;;;;9.40;2.00;;;;;;;17.18;67.78;98395.63;5030348;28;20030;-49
2024/02/09 12:49:27;;;;;;;8.30;2.40;;;;;;;16.95;67.54;98397.69;5029996;28;20033;-53
2024/02/09 12:51:53;;;;;;;7.82;2.10;;;;;;;16.93;68.61;98390.78;5030121;28;20091;-48
2024/02/09 12:54:18;;;;;;;6.72;1.95;;;;;;;17.07;67.67;98396.19;5030544;28;20456;-50
2024/02/09 12:56:43;;;;;;;5.45;1.90;;;;;;;16.95;67.34;98386.31;5029924;28;20030;-49
2024/02/09 12:59:09;;;;;;;5.68;1.80;;;;;;;17.16;66.91;98400.09;5029866;28;20033;-48
2024/02/09 13:01:34;;;;;;;6.22;2.17;;;;;;;17.17;66.23;98394.78;5030538;28;20396;-52
2024/02/09 13:04:00;;;;;;;9.25;1.70;;;;;;;16.42;67.56;98396.84;5030122;28;20063;-49
2024/02/09 13:06:25;;;;;;;6.25;1.85;;;;;;;16.60;67.72;98399.47;5031019;28;20065;-48
2024/02/09 13:08:52;;;;;;;7.82;1.92;;;;;;;16.60;68.17;98398.59;5029502;28;20033;-48
2024/02/09 13:11:18;;;;;;;5.18;1.88;;;;;;;17.12;66.43;98406.47;5030656;28;20034;-49
2024/02/09 13:13:46;;;;;;;7.50;1.92;;;;;;;17.59;65.28;98409.22;5029824;28;20404;-48